Portada
METAR-TAF:

METAR-TAF

Aeroports :

Oiapoque, Amapá, Brasil

latitud: 03-50N, longitud: 051-50W, altitud: 39 m

Observació

L'informe es va fer fa 10 hores i 3 minuts, a les 20:00 UTC
Vent 8 kt del Sud/Sud-Est
Temperatura 30°C
Humitat 66%
Pressió 1012 hPa
Visibilitat 10 km o més
Escasses núvols a una alçada de 4000 ft

METAR: SBOI 082000Z 15008KT 9999 FEW040 30/23 Q1012

Hora: 03:03 (06:03 UTC)


TAF: manca

Observacions i pronòstics meteorològics de més de 4000 aeroports (METAR i TAF).

Les estacions disponibles són els punts grocs i vermells al mapa.

Posi el ratolí al punt desitjat per veure el nom de l'estació.

Feu clic per veure les observacions i els pronòstics meteorològics.

Per canviar el mapa: feu clic els botons verds amb una creu de color negre per apropar; al botó verd amb un guió per allunyar la imatge; o en les fletxes verdes per a mapes adjacents.


METAR-TAF: